Latest Coastal Weather Observations for Charles Point

IDD60701

Issued at 6:21 pm CST Friday 18 September 2020 (issued every 10 minutes, with the page automatically refreshed every 10 minutes)

About coastal observations | Map of coastal stations | Coastal observations for NT | Marine services | Other Formats
Station Details ID: 014031 Name: CHARLES POINT Lat: -12.39 Lon: 130.63 Height: 14.0 m
Data from the previous 72 hours. | See also: Recent months for locations in Northern Territory
Date/Time
CST
Wind Sea
Height
m
Swell Vis
km
Cloud Weather Temp
°C
Press
hPa
Rain since
9am
mm
Dir  Spd
kts
Gust
kts
Height
m
Period
s
Dir
18/06:00pm NE 5 7 - - - - - - - 29.8 1009.7 0.0
18/05:30pm NE 5 7 - - - - - - - 30.1 1009.6 0.0
18/05:00pm NE 5 7 - - - - - - - 30.2 1009.7 0.0
18/04:30pm NE 5 8 - - - - - - - 30.3 1009.7 0.0
18/04:00pm NE 6 9 - - - - - - - 30.4 1009.9 0.0
18/03:30pm NE 7 11 - - - - - - - 30.5 1010.3 0.0
18/03:00pm NNE 7 11 - - - - - - - 31.0 1010.7 0.0
18/02:30pm N 7 10 - - - - - - - 29.6 1011.1 0.0
18/02:00pm NNE 7 9 - - - - - - - 29.5 1011.6 0.0
18/01:30pm NNE 7 11 - - - - - - - 29.6 1012.0 0.0
18/01:00pm NNE 9 12 - - - - - - - 29.6 1012.5 0.0
18/12:30pm NNE 6 8 - - - - - - - 29.4 1013.1 0.0
18/12:00pm N 5 7 - - - - - - - 29.2 1013.7 0.0
18/11:30am NNE 5 6 - - - - - - - 29.5 1014.1 0.0
18/11:00am NE 4 6 - - - - - - - 29.6 1014.5 0.0
18/10:30am NE 4 5 - - - - - - - 29.1 1014.8 0.0
18/10:00am NE 4 7 - - - - - - - 29.4 1014.7 0.0
18/09:30am E 4 7 - - - - - - - 29.0 1014.7 0.0
18/09:00am ENE 4 5 - - - - - - - 28.1 1014.5 1.4
18/08:30am ENE 1 3 - - - - - - - 27.1 1014.2 1.4
18/08:00am CALM 0 3 - - - - - - - 26.1 1014.1 1.4
18/07:30am ENE 5 12 - - - - - - - 26.2 1013.5 0.0
18/07:00am SSW 2 4 - - - - - - - 25.7 1013.0 0.0
18/06:30am W 2 2 - - - - - - - 25.5 1012.7 0.0
18/06:00am CALM 0 0 - - - - - - - 25.6 1012.4 0.0
18/05:30am CALM 0 0 - - - - - - - 25.9 1011.9 0.0
18/05:00am CALM 0 0 - - - - - - - 25.9 1011.6 0.0
18/04:30am CALM 0 0 - - - - - - - 25.9 1011.4 0.0
18/04:00am CALM 0 1 - - - - - - - 26.3 1011.3 0.0
18/03:30am WSW 1 2 - - - - - - - 26.5 1011.5 0.0
18/03:00am CALM 0 0 - - - - - - - 26.6 1011.7 0.0
18/02:30am WSW 1 2 - - - - - - - 26.6 1011.7 0.0
18/02:00am WSW 2 3 - - - - - - - 26.6 1011.8 0.0
18/01:30am WSW 1 4 - - - - - - - 27.0 1012.0 0.0
18/01:00am W 3 5 - - - - - - - 27.3 1012.0 0.0
18/12:30am W 5 8 - - - - - - - 27.4 1012.4 0.0
18/12:00am WNW 5 7 - - - - - - - 27.5 1012.8 0.0
 
Date/Time
CST
Wind Sea
Height
m
Swell Vis
km
Cloud Weather Temp
°C
Press
hPa
Rain since
9am
mm
Dir  Spd
kts
Gust
kts
Height
m
Period
s
Dir
17/11:30pm WNW 7 8 - - - - - - - 27.6 1012.9 0.0
17/11:00pm WNW 6 9 - - - - - - - 27.6 1013.0 0.0
17/10:30pm W 6 9 - - - - - - - 27.6 1012.8 0.0
17/10:00pm WNW 7 9 - - - - - - - 27.6 1012.8 0.0
17/09:30pm WNW 7 11 - - - - - - - 27.7 1012.6 0.0
17/09:00pm WNW 7 11 - - - - - - - 27.8 1012.5 0.0
17/08:30pm W 5 10 - - - - - - - 27.9 1012.0 0.0
17/08:00pm W 5 8 - - - - - - - 28.0 1011.7 0.0
17/07:30pm WNW 7 10 - - - - - - - 28.3 1011.3 0.0
17/07:00pm NW 5 8 - - - - - - - 28.7 1011.0 0.0
17/06:30pm N 5 7 - - - - - - - 29.1 1010.7 0.0
17/06:00pm NE 7 9 - - - - - - - 29.0 1010.3 0.0
17/05:30pm NE 8 12 - - - - - - - 29.3 1010.0 0.0
17/05:00pm NNE 10 13 - - - - - - - 29.6 1009.9 0.0
17/04:30pm NNE 10 13 - - - - - - - 29.9 1010.0 0.0
17/04:00pm NNE 9 12 - - - - - - - 30.5 1010.2 0.0
17/03:30pm NNE 7 11 - - - - - - - 30.1 1010.4 0.0
17/03:00pm NNE 7 10 - - - - - - - 29.3 1010.9 0.0
17/02:30pm N 6 8 - - - - - - - 29.4 1011.3 0.0
17/02:00pm NNE 5 6 - - - - - - - 29.1 1011.9 0.0
17/01:30pm NNE 5 7 - - - - - - - 29.0 1012.5 0.0
17/01:00pm N 5 7 - - - - - - - 28.9 1012.9 0.0
17/12:30pm NNE 5 7 - - - - - - - 29.3 1013.3 0.0
17/12:00pm NNE 4 6 - - - - - - - 29.7 1013.8 0.0
17/11:30am ENE 5 7 - - - - - - - 29.7 1014.2 0.0
17/11:00am ENE 4 6 - - - - - - - 29.1 1014.7 0.0
17/10:30am E 3 7 - - - - - - - 28.6 1014.8 0.0
17/10:00am ENE 4 6 - - - - - - - 28.4 1014.6 0.0
17/09:30am E 3 6 - - - - - - - 27.9 1014.5 0.0
17/09:00am E 3 5 - - - - - - - 27.8 1014.3 0.0
17/08:30am E 3 6 - - - - - - - 27.8 1014.0 0.0
17/08:00am ESE 4 6 - - - - - - - 26.9 1013.8 0.0
17/07:30am E 3 6 - - - - - - - 26.8 1013.5 0.0
17/07:00am E 3 7 - - - - - - - 26.7 1013.0 0.0
17/06:30am E 4 7 - - - - - - - 26.6 1012.7 0.0
17/06:00am E 6 9 - - - - - - - 26.6 1012.3 0.0
17/05:30am E 6 9 - - - - - - - 26.7 1012.2 0.0
17/05:00am E 4 7 - - - - - - - 26.8 1011.8 0.0
17/04:30am NE 5 8 - - - - - - - 26.9 1011.6 0.0
17/04:00am NE 7 9 - - - - - - - 26.9 1011.6 0.0
17/03:30am NNE 5 8 - - - - - - - 26.9 1011.7 0.0
17/03:00am NNE 4 6 - - - - - - - 27.0 1011.6 0.0
17/02:30am NNE 4 6 - - - - - - - 27.1 1011.8 0.0
17/02:00am NNE 3 5 - - - - - - - 27.1 1012.0 0.0
17/01:30am N 5 7 - - - - - - - 27.1 1012.4 0.0
17/01:00am N 7 8 - - - - - - - 27.1 1012.8 0.0
17/12:30am N 7 9 - - - - - - - 27.1 1013.2 0.0
17/12:00am N 8 9 - - - - - - - 27.1 1013.5 0.0
 
Date/Time
CST
Wind Sea
Height
m
Swell Vis
km
Cloud Weather Temp
°C
Press
hPa
Rain since
9am
mm
Dir  Spd
kts
Gust
kts
Height
m
Period
s
Dir
16/11:30pm N 8 11 - - - - - - - 27.5 1013.5 0.0
16/11:00pm WSW 2 4 - - - - - - - 27.4 1013.4 0.0
16/10:30pm W 3 7 - - - - - - - 27.5 1013.4 0.0
16/10:00pm W 4 7 - - - - - - - 27.5 1013.3 0.0
16/09:30pm W 3 6 - - - - - - - 27.4 1013.1 0.0
16/09:00pm W 5 8 - - - - - - - 27.5 1012.9 0.0
16/08:30pm W 4 7 - - - - - - - 27.3 1012.5 0.0
16/08:00pm SSE 2 2 - - - - - - - 27.2 1011.9 0.0
16/07:30pm NE 3 5 - - - - - - - 29.1 1011.4 0.0
16/07:00pm NE 7 10 - - - - - - - 29.3 1010.8 0.0
16/06:30pm NNE 9 13 - - - - - - - 29.4 1010.4 0.0
16/06:00pm NNE 10 15 - - - - - - - 29.5 1010.1 0.0
16/05:30pm NNE 13 17 - - - - - - - 29.5 1009.8 0.0
16/05:00pm NNE 13 17 - - - - - - - 29.4 1009.9 0.0
16/04:30pm NNE 13 17 - - - - - - - 29.1 1010.0 0.0
16/04:00pm NNE 14 20 - - - - - - - 29.3 1010.1 0.0
16/03:30pm NNE 13 18 - - - - - - - 29.2 1010.3 0.0
16/03:00pm NNE 13 19 - - - - - - - 29.4 1010.6 0.0
16/02:30pm NNE 12 16 - - - - - - - 29.7 1011.0 0.0
16/02:00pm NNE 9 15 - - - - - - - 29.5 1011.7 0.0
16/01:30pm NNE 9 14 - - - - - - - 30.1 1012.3 0.0
16/01:00pm NNE 8 11 - - - - - - - 29.3 1012.8 0.0
16/12:30pm N 9 11 - - - - - - - 29.0 1013.2 0.0
16/12:00pm NNE 6 8 - - - - - - - 29.5 1013.6 0.0
16/11:30am NE 6 8 - - - - - - - 29.5 1014.1 0.0
16/11:00am NE 7 10 - - - - - - - 29.7 1014.4 0.0
16/10:30am ENE 6 9 - - - - - - - 29.1 1014.9 0.0
16/10:00am ENE 5 8 - - - - - - - 29.0 1015.0 0.0
16/09:30am E 4 7 - - - - - - - 28.5 1015.0 0.0
16/09:00am E 5 8 - - - - - - - 28.4 1014.9 0.0
16/08:30am E 4 7 - - - - - - - 28.1 1014.7 0.0
16/08:00am ESE 3 5 - - - - - - - 27.2 1014.3 0.0
16/07:30am SE 2 3 - - - - - - - 25.7 1013.8 0.0
16/07:00am SE 2 3 - - - - - - - 24.5 1013.3 0.0
16/06:30am SSE 1 3 - - - - - - - 23.9 1013.0 0.0
16/06:00am S 2 3 - - - - - - - 24.2 1012.7 0.0
16/05:30am SE 1 2 - - - - - - - 25.2 1012.5 0.0
16/05:00am ENE 5 7 - - - - - - - 26.7 1012.0 0.0
16/04:30am ENE 4 7 - - - - - - - 26.7 1012.0 0.0
16/04:00am ENE 3 6 - - - - - - - 26.3 1012.0 0.0
16/03:30am SE 2 4 - - - - - - - 25.4 1011.9 0.0
16/03:00am CALM 0 0 - - - - - - - 25.5 1011.9 0.0
16/02:30am ENE 3 5 - - - - - - - 26.7 1012.3 0.0
16/02:00am E 3 5 - - - - - - - 26.8 1012.6 0.0
16/01:30am NE 4 7 - - - - - - - 27.1 1013.1 0.0
16/01:00am NNE 3 6 - - - - - - - 27.3 1013.4 0.0
16/12:30am NNE 8 10 - - - - - - - 27.4 1013.7 0.0
16/12:00am NNW 6 10 - - - - - - - 27.7 1013.6 0.0
 
Date/Time
CST
Wind Sea
Height
m
Swell Vis
km
Cloud Weather Temp
°C
Press
hPa
Rain since
9am
mm
Dir  Spd
kts
Gust
kts
Height
m
Period
s
Dir
15/11:30pm N 7 9 - - - - - - - 27.8 1013.8 0.0
15/11:00pm NW 7 9 - - - - - - - 27.6 1013.6 0.0
15/10:30pm NNW 10 14 - - - - - - - 27.6 1013.4 0.0
15/10:00pm NNW 12 15 - - - - - - - 27.7 1013.0 0.0
15/09:30pm NNW 12 17 - - - - - - - 28.0 1012.7 0.0
15/09:00pm NE 5 7 - - - - - - - 28.6 1012.5 0.0
15/08:30pm ENE 3 6 - - - - - - - 28.6 1012.1 0.0
15/08:00pm ENE 5 10 - - - - - - - 28.8 1011.6 0.0
15/07:30pm ENE 7 12 - - - - - - - 28.9 1011.2 0.0
15/07:00pm NE 11 17 - - - - - - - 29.0 1010.9 0.0
15/06:30pm NE 12 17 - - - - - - - 29.1 1010.4 0.0

Other formats

Comma delimited format used in spreadsheet applications
http://www.bom.gov.au/fwo/IDD60701/IDD60701.99510.axf

JavaScript Object Notation format (JSON) in row-major order
http://www.bom.gov.au/fwo/IDD60701/IDD60701.99510.json

Data quality

Most of these data are generated automatically and are frequently updated. Quality checks on data are not normally performed. It is possible for incorrect values to appear. Refer to information at About Latest Weather Observations and please check the disclaimer before using these data.